sensor_id;sensor_type;location;lat;lon;timestamp;P1;durP1;ratioP1;P2;durP2;ratioP2
19566;SDS011;9930;49.240;8.548;2023-06-10T00:00:52;4.80;;;4.40;;
19566;SDS011;9930;49.240;8.548;2023-06-10T00:03:18;4.88;;;4.57;;
19566;SDS011;9930;49.240;8.548;2023-06-10T00:05:48;4.30;;;4.00;;
19566;SDS011;9930;49.240;8.548;2023-06-10T00:08:16;5.00;;;4.60;;
19566;SDS011;9930;49.240;8.548;2023-06-10T00:10:46;5.40;;;5.00;;
19566;SDS011;9930;49.240;8.548;2023-06-10T00:13:12;4.93;;;4.53;;
19566;SDS011;9930;49.240;8.548;2023-06-10T00:15:38;4.95;;;4.55;;
19566;SDS011;9930;49.240;8.548;2023-06-10T00:18:09;5.05;;;4.65;;
19566;SDS011;9930;49.240;8.548;2023-06-10T00:20:39;4.85;;;4.55;;
19566;SDS011;9930;49.240;8.548;2023-06-10T00:23:06;5.15;;;4.75;;
19566;SDS011;9930;49.240;8.548;2023-06-10T00:25:36;5.00;;;4.70;;
19566;SDS011;9930;49.240;8.548;2023-06-10T00:28:05;5.38;;;4.97;;
19566;SDS011;9930;49.240;8.548;2023-06-10T00:30:34;5.15;;;4.75;;
19566;SDS011;9930;49.240;8.548;2023-06-10T00:33:11;5.07;;;4.63;;
19566;SDS011;9930;49.240;8.548;2023-06-10T00:35:37;5.35;;;4.95;;
19566;SDS011;9930;49.240;8.548;2023-06-10T00:38:06;5.18;;;4.78;;
19566;SDS011;9930;49.240;8.548;2023-06-10T00:40:43;5.00;;;4.70;;
19566;SDS011;9930;49.240;8.548;2023-06-10T00:43:11;5.32;;;4.90;;
19566;SDS011;9930;49.240;8.548;2023-06-10T00:45:40;4.85;;;4.45;;
19566;SDS011;9930;49.240;8.548;2023-06-10T00:48:06;5.13;;;4.72;;
19566;SDS011;9930;49.240;8.548;2023-06-10T00:50:38;5.70;;;5.20;;
19566;SDS011;9930;49.240;8.548;2023-06-10T00:53:10;5.65;;;5.20;;
19566;SDS011;9930;49.240;8.548;2023-06-10T00:55:36;5.38;;;4.88;;
19566;SDS011;9930;49.240;8.548;2023-06-10T00:58:09;5.43;;;5.03;;
19566;SDS011;9930;49.240;8.548;2023-06-10T01:00:45;5.30;;;4.90;;
19566;SDS011;9930;49.240;8.548;2023-06-10T01:03:11;5.07;;;4.72;;
19566;SDS011;9930;49.240;8.548;2023-06-10T01:05:37;5.65;;;5.25;;
19566;SDS011;9930;49.240;8.548;2023-06-10T01:11:00;5.30;;;4.90;;
19566;SDS011;9930;49.240;8.548;2023-06-10T01:13:32;5.53;;;5.13;;
19566;SDS011;9930;49.240;8.548;2023-06-10T01:16:04;5.57;;;5.18;;
19566;SDS011;9930;49.240;8.548;2023-06-10T01:18:36;5.43;;;5.03;;
19566;SDS011;9930;49.240;8.548;2023-06-10T01:21:16;5.45;;;5.05;;
19566;SDS011;9930;49.240;8.548;2023-06-10T01:23:52;5.05;;;4.68;;
19566;SDS011;9930;49.240;8.548;2023-06-10T01:26:24;5.43;;;5.03;;
19566;SDS011;9930;49.240;8.548;2023-06-10T01:29:07;5.85;;;5.35;;
19566;SDS011;9930;49.240;8.548;2023-06-10T01:31:53;5.65;;;5.25;;
19566;SDS011;9930;49.240;8.548;2023-06-10T01:34:28;5.95;;;5.50;;
19566;SDS011;9930;49.240;8.548;2023-06-10T01:37:01;5.53;;;5.13;;
19566;SDS011;9930;49.240;8.548;2023-06-10T01:39:29;6.30;;;5.80;;
19566;SDS011;9930;49.240;8.548;2023-06-10T01:41:57;6.18;;;5.68;;
19566;SDS011;9930;49.240;8.548;2023-06-10T01:44:23;6.40;;;5.90;;
19566;SDS011;9930;49.240;8.548;2023-06-10T01:46:49;5.90;;;5.50;;
19566;SDS011;9930;49.240;8.548;2023-06-10T01:49:15;6.22;;;5.65;;
19566;SDS011;9930;49.240;8.548;2023-06-10T01:51:41;5.90;;;5.43;;
19566;SDS011;9930;49.240;8.548;2023-06-10T01:54:06;5.85;;;5.35;;
19566;SDS011;9930;49.240;8.548;2023-06-10T01:56:36;5.90;;;5.50;;
19566;SDS011;9930;49.240;8.548;2023-06-10T01:59:04;5.65;;;5.25;;
19566;SDS011;9930;49.240;8.548;2023-06-10T02:01:33;6.07;;;5.57;;
19566;SDS011;9930;49.240;8.548;2023-06-10T02:04:01;5.78;;;5.38;;
19566;SDS011;9930;49.240;8.548;2023-06-10T02:06:27;6.20;;;5.78;;
19566;SDS011;9930;49.240;8.548;2023-06-10T02:08:52;5.53;;;5.13;;
19566;SDS011;9930;49.240;8.548;2023-06-10T02:11:18;6.03;;;5.53;;
19566;SDS011;9930;49.240;8.548;2023-06-10T02:13:44;6.25;;;5.78;;
19566;SDS011;9930;49.240;8.548;2023-06-10T02:16:10;5.78;;;5.38;;
19566;SDS011;9930;49.240;8.548;2023-06-10T02:18:37;5.68;;;5.28;;
19566;SDS011;9930;49.240;8.548;2023-06-10T02:21:10;6.35;;;5.85;;
19566;SDS011;9930;49.240;8.548;2023-06-10T02:23:38;5.50;;;5.10;;
19566;SDS011;9930;49.240;8.548;2023-06-10T02:26:11;5.28;;;4.95;;
19566;SDS011;9930;49.240;8.548;2023-06-10T02:28:37;5.90;;;5.50;;
19566;SDS011;9930;49.240;8.548;2023-06-10T02:31:04;5.80;;;5.40;;
19566;SDS011;9930;49.240;8.548;2023-06-10T02:33:34;5.65;;;5.15;;
19566;SDS011;9930;49.240;8.548;2023-06-10T02:35:59;5.20;;;4.88;;
19566;SDS011;9930;49.240;8.548;2023-06-10T02:38:27;5.95;;;5.53;;
19566;SDS011;9930;49.240;8.548;2023-06-10T02:40:53;5.72;;;5.32;;
19566;SDS011;9930;49.240;8.548;2023-06-10T02:43:22;6.00;;;5.50;;
19566;SDS011;9930;49.240;8.548;2023-06-10T02:45:47;5.63;;;5.22;;
19566;SDS011;9930;49.240;8.548;2023-06-10T02:48:15;6.20;;;5.68;;
19566;SDS011;9930;49.240;8.548;2023-06-10T02:50:46;5.80;;;5.40;;
19566;SDS011;9930;49.240;8.548;2023-06-10T02:53:11;6.32;;;5.85;;
19566;SDS011;9930;49.240;8.548;2023-06-10T02:55:42;5.82;;;5.32;;
19566;SDS011;9930;49.240;8.548;2023-06-10T02:58:10;5.63;;;5.22;;
19566;SDS011;9930;49.240;8.548;2023-06-10T03:00:36;6.32;;;5.82;;
19566;SDS011;9930;49.240;8.548;2023-06-10T03:03:05;6.00;;;5.60;;
19566;SDS011;9930;49.240;8.548;2023-06-10T03:05:32;5.32;;;5.03;;
19566;SDS011;9930;49.240;8.548;2023-06-10T03:07:57;5.68;;;5.18;;
19566;SDS011;9930;49.240;8.548;2023-06-10T03:10:25;5.88;;;5.47;;
19566;SDS011;9930;49.240;8.548;2023-06-10T03:12:53;5.80;;;5.35;;
19566;SDS011;9930;49.240;8.548;2023-06-10T03:15:19;5.80;;;5.30;;
19566;SDS011;9930;49.240;8.548;2023-06-10T03:17:45;5.80;;;5.40;;
19566;SDS011;9930;49.240;8.548;2023-06-10T03:20:11;6.00;;;5.60;;
19566;SDS011;9930;49.240;8.548;2023-06-10T03:22:37;6.05;;;5.65;;
19566;SDS011;9930;49.240;8.548;2023-06-10T03:25:04;6.10;;;5.60;;
19566;SDS011;9930;49.240;8.548;2023-06-10T03:27:43;5.88;;;5.40;;
19566;SDS011;9930;49.240;8.548;2023-06-10T03:30:11;11.65;;;9.93;;
19566;SDS011;9930;49.240;8.548;2023-06-10T03:32:40;16.50;;;13.13;;
19566;SDS011;9930;49.240;8.548;2023-06-10T03:35:06;15.65;;;12.23;;
19566;SDS011;9930;49.240;8.548;2023-06-10T03:37:38;13.05;;;10.68;;
19566;SDS011;9930;49.240;8.548;2023-06-10T03:40:04;9.98;;;8.88;;
19566;SDS011;9930;49.240;8.548;2023-06-10T03:42:34;9.35;;;8.45;;
19566;SDS011;9930;49.240;8.548;2023-06-10T03:45:02;8.68;;;7.88;;
19566;SDS011;9930;49.240;8.548;2023-06-10T03:47:38;8.20;;;7.50;;
19566;SDS011;9930;49.240;8.548;2023-06-10T03:50:06;7.30;;;6.63;;
19566;SDS011;9930;49.240;8.548;2023-06-10T03:52:38;7.13;;;6.45;;
19566;SDS011;9930;49.240;8.548;2023-06-10T03:55:06;7.60;;;6.90;;
19566;SDS011;9930;49.240;8.548;2023-06-10T03:57:36;7.47;;;6.85;;
19566;SDS011;9930;49.240;8.548;2023-06-10T04:00:08;6.93;;;6.28;;
19566;SDS011;9930;49.240;8.548;2023-06-10T04:02:40;5.65;;;5.18;;
19566;SDS011;9930;49.240;8.548;2023-06-10T04:05:11;5.95;;;5.53;;
19566;SDS011;9930;49.240;8.548;2023-06-10T04:07:43;6.00;;;5.60;;
19566;SDS011;9930;49.240;8.548;2023-06-10T04:10:12;5.25;;;4.85;;
19566;SDS011;9930;49.240;8.548;2023-06-10T04:12:38;5.80;;;5.30;;
19566;SDS011;9930;49.240;8.548;2023-06-10T04:15:04;5.57;;;5.18;;
19566;SDS011;9930;49.240;8.548;2023-06-10T04:17:34;5.43;;;5.00;;
19566;SDS011;9930;49.240;8.548;2023-06-10T04:20:05;5.72;;;5.32;;
19566;SDS011;9930;49.240;8.548;2023-06-10T04:22:32;5.60;;;5.10;;
19566;SDS011;9930;49.240;8.548;2023-06-10T04:24:58;5.72;;;5.30;;
19566;SDS011;9930;49.240;8.548;2023-06-10T04:27:29;6.05;;;5.55;;
19566;SDS011;9930;49.240;8.548;2023-06-10T04:29:58;5.50;;;5.10;;
19566;SDS011;9930;49.240;8.548;2023-06-10T04:32:23;5.97;;;5.47;;
19566;SDS011;9930;49.240;8.548;2023-06-10T04:34:49;5.78;;;5.38;;
19566;SDS011;9930;49.240;8.548;2023-06-10T04:37:17;5.85;;;5.45;;
19566;SDS011;9930;49.240;8.548;2023-06-10T04:39:43;6.30;;;5.80;;
19566;SDS011;9930;49.240;8.548;2023-06-10T04:42:09;5.22;;;4.82;;
19566;SDS011;9930;49.240;8.548;2023-06-10T04:44:37;6.68;;;6.20;;
19566;SDS011;9930;49.240;8.548;2023-06-10T04:47:04;6.82;;;6.25;;
19566;SDS011;9930;49.240;8.548;2023-06-10T04:49:35;5.70;;;5.30;;
19566;SDS011;9930;49.240;8.548;2023-06-10T04:52:07;5.75;;;5.18;;
19566;SDS011;9930;49.240;8.548;2023-06-10T04:54:33;5.63;;;5.22;;
19566;SDS011;9930;49.240;8.548;2023-06-10T04:56:59;5.22;;;4.72;;
19566;SDS011;9930;49.240;8.548;2023-06-10T04:59:25;5.68;;;5.18;;
19566;SDS011;9930;49.240;8.548;2023-06-10T05:01:53;5.15;;;4.78;;
19566;SDS011;9930;49.240;8.548;2023-06-10T05:04:21;5.00;;;4.55;;
19566;SDS011;9930;49.240;8.548;2023-06-10T05:06:50;5.50;;;5.05;;
19566;SDS011;9930;49.240;8.548;2023-06-10T05:09:16;4.95;;;4.55;;
19566;SDS011;9930;49.240;8.548;2023-06-10T05:11:42;5.07;;;4.57;;
19566;SDS011;9930;49.240;8.548;2023-06-10T05:14:07;4.90;;;4.50;;
19566;SDS011;9930;49.240;8.548;2023-06-10T05:16:34;4.78;;;4.38;;
19566;SDS011;9930;49.240;8.548;2023-06-10T05:19:00;4.18;;;3.88;;
19566;SDS011;9930;49.240;8.548;2023-06-10T05:21:29;4.30;;;4.00;;
19566;SDS011;9930;49.240;8.548;2023-06-10T05:23:55;4.78;;;4.47;;
19566;SDS011;9930;49.240;8.548;2023-06-10T05:26:25;4.93;;;4.53;;
19566;SDS011;9930;49.240;8.548;2023-06-10T05:28:51;4.70;;;4.40;;
19566;SDS011;9930;49.240;8.548;2023-06-10T05:31:21;4.85;;;4.38;;
19566;SDS011;9930;49.240;8.548;2023-06-10T05:33:49;4.82;;;4.43;;
19566;SDS011;9930;49.240;8.548;2023-06-10T05:36:17;4.40;;;4.10;;
19566;SDS011;9930;49.240;8.548;2023-06-10T05:38:43;4.35;;;4.05;;
19566;SDS011;9930;49.240;8.548;2023-06-10T05:41:09;4.63;;;4.32;;
19566;SDS011;9930;49.240;8.548;2023-06-10T05:43:35;4.40;;;4.10;;
19566;SDS011;9930;49.240;8.548;2023-06-10T05:46:02;4.75;;;4.43;;
19566;SDS011;9930;49.240;8.548;2023-06-10T05:48:31;4.30;;;4.00;;
19566;SDS011;9930;49.240;8.548;2023-06-10T05:50:57;4.30;;;4.00;;
19566;SDS011;9930;49.240;8.548;2023-06-10T05:53:23;4.35;;;4.00;;
19566;SDS011;9930;49.240;8.548;2023-06-10T05:55:50;4.03;;;3.78;;
19566;SDS011;9930;49.240;8.548;2023-06-10T05:58:18;4.53;;;4.22;;
19566;SDS011;9930;49.240;8.548;2023-06-10T06:00:45;4.30;;;4.00;;
19566;SDS011;9930;49.240;8.548;2023-06-10T06:03:13;4.60;;;4.30;;
19566;SDS011;9930;49.240;8.548;2023-06-10T06:05:42;4.07;;;3.78;;
19566;SDS011;9930;49.240;8.548;2023-06-10T06:08:09;4.32;;;4.03;;
19566;SDS011;9930;49.240;8.548;2023-06-10T06:10:43;4.38;;;3.85;;
19566;SDS011;9930;49.240;8.548;2023-06-10T06:13:10;4.40;;;4.10;;
19566;SDS011;9930;49.240;8.548;2023-06-10T06:15:36;4.03;;;3.72;;
19566;SDS011;9930;49.240;8.548;2023-06-10T06:18:09;4.85;;;4.55;;
19566;SDS011;9930;49.240;8.548;2023-06-10T06:20:35;4.43;;;4.05;;
19566;SDS011;9930;49.240;8.548;2023-06-10T06:23:02;4.28;;;3.97;;
19566;SDS011;9930;49.240;8.548;2023-06-10T06:25:28;4.35;;;3.97;;
19566;SDS011;9930;49.240;8.548;2023-06-10T06:27:56;4.10;;;3.80;;
19566;SDS011;9930;49.240;8.548;2023-06-10T06:30:22;4.05;;;3.75;;
19566;SDS011;9930;49.240;8.548;2023-06-10T06:32:50;4.28;;;3.97;;
19566;SDS011;9930;49.240;8.548;2023-06-10T06:35:16;4.00;;;3.70;;
19566;SDS011;9930;49.240;8.548;2023-06-10T06:37:44;4.20;;;3.90;;
19566;SDS011;9930;49.240;8.548;2023-06-10T06:40:12;4.30;;;4.00;;
19566;SDS011;9930;49.240;8.548;2023-06-10T06:42:44;4.30;;;4.00;;
19566;SDS011;9930;49.240;8.548;2023-06-10T06:45:09;3.97;;;3.75;;
19566;SDS011;9930;49.240;8.548;2023-06-10T06:47:38;4.68;;;4.28;;
19566;SDS011;9930;49.240;8.548;2023-06-10T06:50:08;3.92;;;3.63;;
19566;SDS011;9930;49.240;8.548;2023-06-10T06:52:35;4.13;;;3.83;;
19566;SDS011;9930;49.240;8.548;2023-06-10T06:55:01;4.00;;;3.70;;
19566;SDS011;9930;49.240;8.548;2023-06-10T06:57:30;4.53;;;4.22;;
19566;SDS011;9930;49.240;8.548;2023-06-10T06:59:55;4.30;;;4.00;;
19566;SDS011;9930;49.240;8.548;2023-06-10T07:02:21;4.85;;;4.45;;
19566;SDS011;9930;49.240;8.548;2023-06-10T07:04:49;4.22;;;3.92;;
19566;SDS011;9930;49.240;8.548;2023-06-10T07:07:20;5.07;;;4.30;;
19566;SDS011;9930;49.240;8.548;2023-06-10T07:09:50;3.90;;;3.60;;
19566;SDS011;9930;49.240;8.548;2023-06-10T07:12:17;4.40;;;4.00;;
19566;SDS011;9930;49.240;8.548;2023-06-10T07:14:48;4.05;;;3.85;;
19566;SDS011;9930;49.240;8.548;2023-06-10T07:17:16;5.07;;;4.57;;
19566;SDS011;9930;49.240;8.548;2023-06-10T07:19:45;5.13;;;4.60;;
19566;SDS011;9930;49.240;8.548;2023-06-10T07:22:11;4.20;;;3.90;;
19566;SDS011;9930;49.240;8.548;2023-06-10T07:24:39;4.20;;;3.90;;
19566;SDS011;9930;49.240;8.548;2023-06-10T07:27:05;4.20;;;3.80;;
19566;SDS011;9930;49.240;8.548;2023-06-10T07:29:36;4.65;;;4.25;;
19566;SDS011;9930;49.240;8.548;2023-06-10T07:32:06;4.10;;;3.80;;
19566;SDS011;9930;49.240;8.548;2023-06-10T07:34:35;3.90;;;3.60;;
19566;SDS011;9930;49.240;8.548;2023-06-10T07:37:05;3.90;;;3.55;;
19566;SDS011;9930;49.240;8.548;2023-06-10T07:39:33;3.88;;;3.58;;
19566;SDS011;9930;49.240;8.548;2023-06-10T07:41:59;3.72;;;3.40;;
19566;SDS011;9930;49.240;8.548;2023-06-10T07:44:31;3.40;;;3.20;;
19566;SDS011;9930;49.240;8.548;2023-06-10T07:46:57;3.80;;;3.50;;
19566;SDS011;9930;49.240;8.548;2023-06-10T07:49:25;3.45;;;3.25;;
19566;SDS011;9930;49.240;8.548;2023-06-10T07:52:00;3.50;;;3.30;;
19566;SDS011;9930;49.240;8.548;2023-06-10T07:54:31;3.75;;;3.47;;
19566;SDS011;9930;49.240;8.548;2023-06-10T07:56:56;3.80;;;3.50;;
19566;SDS011;9930;49.240;8.548;2023-06-10T07:59:22;3.53;;;3.33;;
19566;SDS011;9930;49.240;8.548;2023-06-10T08:01:48;3.60;;;3.30;;
19566;SDS011;9930;49.240;8.548;2023-06-10T08:04:13;3.70;;;3.50;;
19566;SDS011;9930;49.240;8.548;2023-06-10T08:06:39;3.65;;;3.35;;
19566;SDS011;9930;49.240;8.548;2023-06-10T08:09:12;4.63;;;4.22;;
19566;SDS011;9930;49.240;8.548;2023-06-10T08:11:41;3.40;;;3.17;;
19566;SDS011;9930;49.240;8.548;2023-06-10T08:14:08;4.80;;;4.20;;
19566;SDS011;9930;49.240;8.548;2023-06-10T08:16:41;4.00;;;3.70;;
19566;SDS011;9930;49.240;8.548;2023-06-10T08:19:12;3.40;;;3.20;;
19566;SDS011;9930;49.240;8.548;2023-06-10T08:21:37;3.90;;;3.70;;
19566;SDS011;9930;49.240;8.548;2023-06-10T08:24:11;4.00;;;3.70;;
19566;SDS011;9930;49.240;8.548;2023-06-10T08:26:41;3.63;;;3.40;;
19566;SDS011;9930;49.240;8.548;2023-06-10T08:29:11;3.60;;;3.30;;
19566;SDS011;9930;49.240;8.548;2023-06-10T08:31:43;3.65;;;3.45;;
19566;SDS011;9930;49.240;8.548;2023-06-10T08:34:09;3.42;;;3.13;;
19566;SDS011;9930;49.240;8.548;2023-06-10T08:36:35;3.58;;;3.28;;
19566;SDS011;9930;49.240;8.548;2023-06-10T08:39:05;3.78;;;3.47;;
19566;SDS011;9930;49.240;8.548;2023-06-10T08:41:34;3.80;;;3.50;;
19566;SDS011;9930;49.240;8.548;2023-06-10T08:44:22;3.90;;;3.65;;
19566;SDS011;9930;49.240;8.548;2023-06-10T08:47:01;3.67;;;3.38;;
19566;SDS011;9930;49.240;8.548;2023-06-10T08:49:40;3.72;;;3.42;;
19566;SDS011;9930;49.240;8.548;2023-06-10T08:52:14;4.00;;;3.70;;
19566;SDS011;9930;49.240;8.548;2023-06-10T08:55:03;3.90;;;3.60;;
19566;SDS011;9930;49.240;8.548;2023-06-10T08:57:40;4.07;;;3.55;;
19566;SDS011;9930;49.240;8.548;2023-06-10T09:00:10;3.70;;;3.50;;
19566;SDS011;9930;49.240;8.548;2023-06-10T09:02:38;4.30;;;3.90;;
19566;SDS011;9930;49.240;8.548;2023-06-10T09:05:07;4.00;;;3.67;;
19566;SDS011;9930;49.240;8.548;2023-06-10T09:07:38;3.85;;;3.58;;
19566;SDS011;9930;49.240;8.548;2023-06-10T09:10:05;4.10;;;3.80;;
19566;SDS011;9930;49.240;8.548;2023-06-10T09:12:41;4.13;;;3.83;;
19566;SDS011;9930;49.240;8.548;2023-06-10T09:15:07;4.20;;;3.80;;
19566;SDS011;9930;49.240;8.548;2023-06-10T09:17:37;3.90;;;3.60;;
19566;SDS011;9930;49.240;8.548;2023-06-10T09:20:08;4.13;;;3.72;;
19566;SDS011;9930;49.240;8.548;2023-06-10T09:22:37;3.88;;;3.67;;
19566;SDS011;9930;49.240;8.548;2023-06-10T09:25:11;4.05;;;3.70;;
19566;SDS011;9930;49.240;8.548;2023-06-10T09:27:47;4.05;;;3.75;;
19566;SDS011;9930;49.240;8.548;2023-06-10T09:30:31;4.43;;;4.13;;
19566;SDS011;9930;49.240;8.548;2023-06-10T09:33:02;4.70;;;4.30;;
19566;SDS011;9930;49.240;8.548;2023-06-10T09:35:37;4.10;;;3.80;;
19566;SDS011;9930;49.240;8.548;2023-06-10T09:38:23;4.03;;;3.72;;
19566;SDS011;9930;49.240;8.548;2023-06-10T09:40:56;3.78;;;3.53;;
19566;SDS011;9930;49.240;8.548;2023-06-10T09:43:38;4.15;;;3.85;;
19566;SDS011;9930;49.240;8.548;2023-06-10T09:46:16;5.35;;;4.22;;
19566;SDS011;9930;49.240;8.548;2023-06-10T09:48:46;4.55;;;4.22;;
19566;SDS011;9930;49.240;8.548;2023-06-10T09:51:18;4.20;;;3.90;;
19566;SDS011;9930;49.240;8.548;2023-06-10T09:53:47;4.35;;;4.05;;
19566;SDS011;9930;49.240;8.548;2023-06-10T09:56:17;4.15;;;3.85;;
19566;SDS011;9930;49.240;8.548;2023-06-10T09:58:44;4.30;;;4.00;;
19566;SDS011;9930;49.240;8.548;2023-06-10T10:01:14;4.45;;;4.05;;
19566;SDS011;9930;49.240;8.548;2023-06-10T10:03:51;3.70;;;3.50;;
19566;SDS011;9930;49.240;8.548;2023-06-10T10:06:18;4.65;;;4.25;;
19566;SDS011;9930;49.240;8.548;2023-06-10T10:08:48;4.75;;;4.35;;
19566;SDS011;9930;49.240;8.548;2023-06-10T10:11:17;4.38;;;4.00;;
19566;SDS011;9930;49.240;8.548;2023-06-10T10:13:47;4.20;;;3.80;;
19566;SDS011;9930;49.240;8.548;2023-06-10T10:16:26;3.80;;;3.50;;
19566;SDS011;9930;49.240;8.548;2023-06-10T10:19:10;4.10;;;3.80;;
19566;SDS011;9930;49.240;8.548;2023-06-10T10:22:07;4.13;;;3.83;;
19566;SDS011;9930;49.240;8.548;2023-06-10T10:24:42;4.32;;;3.97;;
19566;SDS011;9930;49.240;8.548;2023-06-10T10:27:39;4.22;;;3.92;;
19566;SDS011;9930;49.240;8.548;2023-06-10T10:30:10;3.95;;;3.65;;
19566;SDS011;9930;49.240;8.548;2023-06-10T10:32:58;3.90;;;3.60;;
19566;SDS011;9930;49.240;8.548;2023-06-10T10:35:34;4.00;;;3.70;;
19566;SDS011;9930;49.240;8.548;2023-06-10T10:38:05;4.07;;;3.78;;
19566;SDS011;9930;49.240;8.548;2023-06-10T10:40:34;4.10;;;3.80;;
19566;SDS011;9930;49.240;8.548;2023-06-10T10:43:04;3.67;;;3.42;;
19566;SDS011;9930;49.240;8.548;2023-06-10T10:45:33;6.95;;;3.80;;
19566;SDS011;9930;49.240;8.548;2023-06-10T10:48:03;4.57;;;4.18;;
19566;SDS011;9930;49.240;8.548;2023-06-10T10:50:37;4.68;;;3.72;;
19566;SDS011;9930;49.240;8.548;2023-06-10T10:53:03;3.83;;;3.63;;
19566;SDS011;9930;49.240;8.548;2023-06-10T10:55:33;4.22;;;3.92;;
19566;SDS011;9930;49.240;8.548;2023-06-10T10:58:05;3.92;;;3.63;;
19566;SDS011;9930;49.240;8.548;2023-06-10T11:00:44;3.65;;;3.35;;
19566;SDS011;9930;49.240;8.548;2023-06-10T11:03:14;4.15;;;3.85;;
19566;SDS011;9930;49.240;8.548;2023-06-10T11:05:47;3.80;;;3.50;;
19566;SDS011;9930;49.240;8.548;2023-06-10T11:08:14;3.50;;;3.30;;
19566;SDS011;9930;49.240;8.548;2023-06-10T11:11:01;3.97;;;3.67;;
19566;SDS011;9930;49.240;8.548;2023-06-10T11:16:30;4.15;;;3.30;;
19566;SDS011;9930;49.240;8.548;2023-06-10T11:19:11;4.03;;;3.72;;
19566;SDS011;9930;49.240;8.548;2023-06-10T11:22:15;3.85;;;3.55;;
19566;SDS011;9930;49.240;8.548;2023-06-10T11:24:46;3.45;;;3.25;;
19566;SDS011;9930;49.240;8.548;2023-06-10T11:27:18;3.60;;;3.40;;
19566;SDS011;9930;49.240;8.548;2023-06-10T11:32:30;3.95;;;3.60;;
19566;SDS011;9930;49.240;8.548;2023-06-10T11:35:01;4.00;;;3.72;;
19566;SDS011;9930;49.240;8.548;2023-06-10T11:37:29;4.10;;;3.80;;
19566;SDS011;9930;49.240;8.548;2023-06-10T11:39:55;3.78;;;3.40;;
19566;SDS011;9930;49.240;8.548;2023-06-10T11:42:23;3.65;;;3.38;;
19566;SDS011;9930;49.240;8.548;2023-06-10T11:44:49;3.33;;;3.13;;
19566;SDS011;9930;49.240;8.548;2023-06-10T11:47:19;3.40;;;3.20;;
19566;SDS011;9930;49.240;8.548;2023-06-10T11:49:55;3.40;;;3.20;;
19566;SDS011;9930;49.240;8.548;2023-06-10T11:52:31;4.07;;;3.65;;
19566;SDS011;9930;49.240;8.548;2023-06-10T11:54:58;3.63;;;3.38;;
19566;SDS011;9930;49.240;8.548;2023-06-10T11:57:30;3.72;;;3.42;;
19566;SDS011;9930;49.240;8.548;2023-06-10T12:00:03;3.45;;;3.15;;
19566;SDS011;9930;49.240;8.548;2023-06-10T12:02:33;3.80;;;3.50;;
19566;SDS011;9930;49.240;8.548;2023-06-10T12:05:14;3.45;;;3.25;;
19566;SDS011;9930;49.240;8.548;2023-06-10T12:07:40;3.33;;;3.13;;
19566;SDS011;9930;49.240;8.548;2023-06-10T12:10:09;3.20;;;3.00;;
19566;SDS011;9930;49.240;8.548;2023-06-10T12:12:35;3.30;;;3.10;;
19566;SDS011;9930;49.240;8.548;2023-06-10T12:15:06;3.47;;;3.20;;
19566;SDS011;9930;49.240;8.548;2023-06-10T12:17:38;3.72;;;3.42;;
19566;SDS011;9930;49.240;8.548;2023-06-10T12:20:08;3.13;;;2.92;;
19566;SDS011;9930;49.240;8.548;2023-06-10T12:22:53;3.10;;;2.90;;
19566;SDS011;9930;49.240;8.548;2023-06-10T12:25:28;2.90;;;2.70;;
19566;SDS011;9930;49.240;8.548;2023-06-10T12:27:58;3.03;;;2.83;;
19566;SDS011;9930;49.240;8.548;2023-06-10T12:30:26;2.90;;;2.70;;
19566;SDS011;9930;49.240;8.548;2023-06-10T12:32:55;3.17;;;2.97;;
19566;SDS011;9930;49.240;8.548;2023-06-10T12:35:27;3.33;;;3.13;;
19566;SDS011;9930;49.240;8.548;2023-06-10T12:38:04;3.10;;;2.90;;
19566;SDS011;9930;49.240;8.548;2023-06-10T12:40:34;3.30;;;3.10;;
19566;SDS011;9930;49.240;8.548;2023-06-10T12:43:08;3.30;;;3.10;;
19566;SDS011;9930;49.240;8.548;2023-06-10T12:45:36;2.80;;;2.60;;
19566;SDS011;9930;49.240;8.548;2023-06-10T12:48:10;3.00;;;2.80;;
19566;SDS011;9930;49.240;8.548;2023-06-10T12:50:49;3.15;;;2.95;;
19566;SDS011;9930;49.240;8.548;2023-06-10T12:53:25;3.40;;;3.20;;
19566;SDS011;9930;49.240;8.548;2023-06-10T12:55:58;3.20;;;3.00;;
19566;SDS011;9930;49.240;8.548;2023-06-10T12:58:25;3.08;;;2.88;;
19566;SDS011;9930;49.240;8.548;2023-06-10T13:00:51;3.25;;;3.05;;
19566;SDS011;9930;49.240;8.548;2023-06-10T13:03:21;5.10;;;2.85;;
19566;SDS011;9930;49.240;8.548;2023-06-10T13:05:49;3.40;;;3.20;;
19566;SDS011;9930;49.240;8.548;2023-06-10T13:08:20;3.45;;;3.25;;
19566;SDS011;9930;49.240;8.548;2023-06-10T13:10:48;3.47;;;3.17;;
19566;SDS011;9930;49.240;8.548;2023-06-10T13:13:14;3.05;;;2.85;;
19566;SDS011;9930;49.240;8.548;2023-06-10T13:15:40;3.30;;;3.10;;
19566;SDS011;9930;49.240;8.548;2023-06-10T13:18:06;3.47;;;3.28;;
19566;SDS011;9930;49.240;8.548;2023-06-10T13:20:40;3.42;;;3.13;;
19566;SDS011;9930;49.240;8.548;2023-06-10T13:23:09;3.42;;;3.13;;
19566;SDS011;9930;49.240;8.548;2023-06-10T13:25:35;3.25;;;3.05;;
19566;SDS011;9930;49.240;8.548;2023-06-10T13:28:05;3.10;;;2.90;;
19566;SDS011;9930;49.240;8.548;2023-06-10T13:30:41;3.10;;;2.90;;
19566;SDS011;9930;49.240;8.548;2023-06-10T13:33:07;3.10;;;2.90;;
19566;SDS011;9930;49.240;8.548;2023-06-10T13:35:39;2.72;;;2.63;;
19566;SDS011;9930;49.240;8.548;2023-06-10T13:38:09;3.35;;;3.10;;
19566;SDS011;9930;49.240;8.548;2023-06-10T13:40:42;3.40;;;3.10;;
19566;SDS011;9930;49.240;8.548;2023-06-10T13:43:10;3.65;;;3.35;;
19566;SDS011;9930;49.240;8.548;2023-06-10T13:45:39;3.22;;;3.03;;
19566;SDS011;9930;49.240;8.548;2023-06-10T13:48:07;2.83;;;2.63;;
19566;SDS011;9930;49.240;8.548;2023-06-10T13:50:36;3.30;;;3.00;;
19566;SDS011;9930;49.240;8.548;2023-06-10T13:53:03;3.05;;;2.85;;
19566;SDS011;9930;49.240;8.548;2023-06-10T13:55:28;3.60;;;3.33;;
19566;SDS011;9930;49.240;8.548;2023-06-10T13:57:54;2.90;;;2.70;;
19566;SDS011;9930;49.240;8.548;2023-06-10T14:00:20;3.30;;;3.10;;
19566;SDS011;9930;49.240;8.548;2023-06-10T14:02:48;3.17;;;2.97;;
19566;SDS011;9930;49.240;8.548;2023-06-10T14:05:21;3.30;;;3.10;;
19566;SDS011;9930;49.240;8.548;2023-06-10T14:07:47;3.10;;;2.90;;
19566;SDS011;9930;49.240;8.548;2023-06-10T14:10:14;3.00;;;2.80;;
19566;SDS011;9930;49.240;8.548;2023-06-10T14:12:43;3.20;;;3.00;;
19566;SDS011;9930;49.240;8.548;2023-06-10T14:15:10;2.90;;;2.70;;
19566;SDS011;9930;49.240;8.548;2023-06-10T14:17:39;3.10;;;2.90;;
19566;SDS011;9930;49.240;8.548;2023-06-10T14:20:08;3.00;;;2.80;;
19566;SDS011;9930;49.240;8.548;2023-06-10T14:22:35;2.88;;;2.67;;
19566;SDS011;9930;49.240;8.548;2023-06-10T14:25:03;3.20;;;2.90;;
19566;SDS011;9930;49.240;8.548;2023-06-10T14:27:30;3.28;;;2.97;;
19566;SDS011;9930;49.240;8.548;2023-06-10T14:29:56;3.22;;;3.00;;
19566;SDS011;9930;49.240;8.548;2023-06-10T14:32:21;3.85;;;3.00;;
19566;SDS011;9930;49.240;8.548;2023-06-10T14:34:49;3.10;;;2.90;;
19566;SDS011;9930;49.240;8.548;2023-06-10T14:37:15;3.30;;;2.95;;
19566;SDS011;9930;49.240;8.548;2023-06-10T14:39:45;2.92;;;2.72;;
19566;SDS011;9930;49.240;8.548;2023-06-10T14:42:11;3.30;;;3.10;;
19566;SDS011;9930;49.240;8.548;2023-06-10T14:44:36;2.88;;;2.67;;
19566;SDS011;9930;49.240;8.548;2023-06-10T14:47:02;3.35;;;3.15;;
19566;SDS011;9930;49.240;8.548;2023-06-10T14:49:33;3.10;;;2.90;;
19566;SDS011;9930;49.240;8.548;2023-06-10T14:51:59;2.90;;;2.70;;
19566;SDS011;9930;49.240;8.548;2023-06-10T14:54:25;2.90;;;2.70;;
19566;SDS011;9930;49.240;8.548;2023-06-10T14:56:50;3.00;;;2.80;;
19566;SDS011;9930;49.240;8.548;2023-06-10T14:59:18;3.05;;;2.85;;
19566;SDS011;9930;49.240;8.548;2023-06-10T15:01:44;3.25;;;3.05;;
19566;SDS011;9930;49.240;8.548;2023-06-10T15:04:09;3.00;;;2.80;;
19566;SDS011;9930;49.240;8.548;2023-06-10T15:06:35;3.00;;;2.80;;
19566;SDS011;9930;49.240;8.548;2023-06-10T15:09:09;3.28;;;2.85;;
19566;SDS011;9930;49.240;8.548;2023-06-10T15:11:35;3.22;;;2.92;;
19566;SDS011;9930;49.240;8.548;2023-06-10T15:14:05;3.38;;;3.08;;
19566;SDS011;9930;49.240;8.548;2023-06-10T15:16:34;3.10;;;2.90;;
19566;SDS011;9930;49.240;8.548;2023-06-10T15:19:04;19.30;;;17.60;;
19566;SDS011;9930;49.240;8.548;2023-06-10T15:21:31;18.90;;;17.20;;
19566;SDS011;9930;49.240;8.548;2023-06-10T15:24:00;8.85;;;8.02;;